sensor_id;sensor_type;location;lat;lon;timestamp;temperature;humidity
46309;DHT22;32037;50.820;6.494;2023-11-19T00:01:26;9.40;98.70
46309;DHT22;32037;50.820;6.494;2023-11-19T00:03:54;9.40;98.80
46309;DHT22;32037;50.820;6.494;2023-11-19T00:06:23;9.40;98.90
46309;DHT22;32037;50.820;6.494;2023-11-19T00:08:51;9.40;98.80
46309;DHT22;32037;50.820;6.494;2023-11-19T00:11:19;9.40;98.80
46309;DHT22;32037;50.820;6.494;2023-11-19T00:13:49;9.40;98.50
46309;DHT22;32037;50.820;6.494;2023-11-19T00:16:17;9.40;98.70
46309;DHT22;32037;50.820;6.494;2023-11-19T00:18:45;9.40;98.50
46309;DHT22;32037;50.820;6.494;2023-11-19T00:21:14;9.40;98.80
46309;DHT22;32037;50.820;6.494;2023-11-19T00:23:42;9.40;98.80
46309;DHT22;32037;50.820;6.494;2023-11-19T00:26:10;9.40;98.80
46309;DHT22;32037;50.820;6.494;2023-11-19T00:28:41;9.40;98.90
46309;DHT22;32037;50.820;6.494;2023-11-19T00:31:11;9.40;98.70
46309;DHT22;32037;50.820;6.494;2023-11-19T00:33:39;9.40;98.50
46309;DHT22;32037;50.820;6.494;2023-11-19T00:36:10;9.40;98.50
46309;DHT22;32037;50.820;6.494;2023-11-19T00:38:39;9.40;98.60
46309;DHT22;32037;50.820;6.494;2023-11-19T00:41:07;9.40;98.50
46309;DHT22;32037;50.820;6.494;2023-11-19T00:43:35;9.40;98.50
46309;DHT22;32037;50.820;6.494;2023-11-19T00:46:03;9.40;98.80
46309;DHT22;32037;50.820;6.494;2023-11-19T00:48:33;9.40;98.60
46309;DHT22;32037;50.820;6.494;2023-11-19T00:51:01;9.40;98.50
46309;DHT22;32037;50.820;6.494;2023-11-19T00:53:31;9.40;98.50
46309;DHT22;32037;50.820;6.494;2023-11-19T00:56:00;9.40;98.50
46309;DHT22;32037;50.820;6.494;2023-11-19T00:58:28;9.50;98.70
46309;DHT22;32037;50.820;6.494;2023-11-19T01:00:57;9.50;98.50
46309;DHT22;32037;50.820;6.494;2023-11-19T01:03:26;9.50;98.60
46309;DHT22;32037;50.820;6.494;2023-11-19T01:05:56;9.50;98.50
46309;DHT22;32037;50.820;6.494;2023-11-19T01:08:26;9.50;98.50
46309;DHT22;32037;50.820;6.494;2023-11-19T01:10:54;9.50;98.50
46309;DHT22;32037;50.820;6.494;2023-11-19T01:13:22;9.50;98.60
46309;DHT22;32037;50.820;6.494;2023-11-19T01:15:51;9.50;98.70
46309;DHT22;32037;50.820;6.494;2023-11-19T01:18:19;9.50;98.50
46309;DHT22;32037;50.820;6.494;2023-11-19T01:20:47;9.50;98.50
46309;DHT22;32037;50.820;6.494;2023-11-19T01:23:17;9.50;98.70
46309;DHT22;32037;50.820;6.494;2023-11-19T01:25:46;9.50;98.60
46309;DHT22;32037;50.820;6.494;2023-11-19T01:28:15;9.50;99.00
46309;DHT22;32037;50.820;6.494;2023-11-19T01:30:43;9.50;98.80
46309;DHT22;32037;50.820;6.494;2023-11-19T01:33:11;9.50;99.10
46309;DHT22;32037;50.820;6.494;2023-11-19T01:35:39;9.50;99.30
46309;DHT22;32037;50.820;6.494;2023-11-19T01:38:07;9.50;98.60
46309;DHT22;32037;50.820;6.494;2023-11-19T01:40:37;9.50;99.00
46309;DHT22;32037;50.820;6.494;2023-11-19T01:43:05;9.50;98.90
46309;DHT22;32037;50.820;6.494;2023-11-19T01:45:34;9.50;98.90
46309;DHT22;32037;50.820;6.494;2023-11-19T01:48:02;9.50;98.70
46309;DHT22;32037;50.820;6.494;2023-11-19T01:50:32;9.50;98.80
46309;DHT22;32037;50.820;6.494;2023-11-19T01:53:01;9.50;98.80
46309;DHT22;32037;50.820;6.494;2023-11-19T01:55:29;9.50;98.80
46309;DHT22;32037;50.820;6.494;2023-11-19T01:58:00;9.50;98.80
46309;DHT22;32037;50.820;6.494;2023-11-19T02:00:30;9.50;98.70
46309;DHT22;32037;50.820;6.494;2023-11-19T02:03:00;9.50;98.90
46309;DHT22;32037;50.820;6.494;2023-11-19T02:05:30;9.50;98.70
46309;DHT22;32037;50.820;6.494;2023-11-19T02:07:59;9.50;98.90
46309;DHT22;32037;50.820;6.494;2023-11-19T02:10:27;9.50;99.00
46309;DHT22;32037;50.820;6.494;2023-11-19T02:12:55;9.50;99.10
46309;DHT22;32037;50.820;6.494;2023-11-19T02:15:34;9.60;99.00
46309;DHT22;32037;50.820;6.494;2023-11-19T02:18:21;9.50;98.90
46309;DHT22;32037;50.820;6.494;2023-11-19T02:20:50;9.50;98.80
46309;DHT22;32037;50.820;6.494;2023-11-19T02:23:19;9.50;98.80
46309;DHT22;32037;50.820;6.494;2023-11-19T02:25:58;9.60;98.90
46309;DHT22;32037;50.820;6.494;2023-11-19T02:28:29;9.50;98.80
46309;DHT22;32037;50.820;6.494;2023-11-19T02:30:57;9.60;98.70
46309;DHT22;32037;50.820;6.494;2023-11-19T02:33:25;9.60;98.60
46309;DHT22;32037;50.820;6.494;2023-11-19T02:35:53;9.60;98.80
46309;DHT22;32037;50.820;6.494;2023-11-19T02:38:21;9.60;98.80
46309;DHT22;32037;50.820;6.494;2023-11-19T02:40:49;9.60;98.60
46309;DHT22;32037;50.820;6.494;2023-11-19T02:43:17;9.60;98.80
46309;DHT22;32037;50.820;6.494;2023-11-19T02:45:47;9.50;98.90
46309;DHT22;32037;50.820;6.494;2023-11-19T02:48:15;9.60;99.00
46309;DHT22;32037;50.820;6.494;2023-11-19T02:50:43;9.60;98.80
46309;DHT22;32037;50.820;6.494;2023-11-19T02:53:12;9.60;98.80
46309;DHT22;32037;50.820;6.494;2023-11-19T02:55:40;9.60;98.60
46309;DHT22;32037;50.820;6.494;2023-11-19T02:58:15;9.60;98.60
46309;DHT22;32037;50.820;6.494;2023-11-19T03:00:51;9.60;98.80
46309;DHT22;32037;50.820;6.494;2023-11-19T03:03:25;9.60;98.80
46309;DHT22;32037;50.820;6.494;2023-11-19T03:05:57;9.60;98.80
46309;DHT22;32037;50.820;6.494;2023-11-19T03:08:25;9.60;98.80
46309;DHT22;32037;50.820;6.494;2023-11-19T03:10:54;9.60;99.00
46309;DHT22;32037;50.820;6.494;2023-11-19T03:13:22;9.60;98.90
46309;DHT22;32037;50.820;6.494;2023-11-19T03:15:51;9.60;99.00
46309;DHT22;32037;50.820;6.494;2023-11-19T03:18:20;9.60;99.00
46309;DHT22;32037;50.820;6.494;2023-11-19T03:20:48;9.60;98.80
46309;DHT22;32037;50.820;6.494;2023-11-19T03:23:17;9.60;99.00
46309;DHT22;32037;50.820;6.494;2023-11-19T03:25:45;9.60;98.80
46309;DHT22;32037;50.820;6.494;2023-11-19T03:28:13;9.60;98.90
46309;DHT22;32037;50.820;6.494;2023-11-19T03:30:42;9.60;98.80
46309;DHT22;32037;50.820;6.494;2023-11-19T03:33:11;9.60;98.90
46309;DHT22;32037;50.820;6.494;2023-11-19T03:35:40;9.60;98.70
46309;DHT22;32037;50.820;6.494;2023-11-19T03:38:08;9.60;99.00
46309;DHT22;32037;50.820;6.494;2023-11-19T03:40:36;9.60;98.80
46309;DHT22;32037;50.820;6.494;2023-11-19T03:43:05;9.60;98.90
46309;DHT22;32037;50.820;6.494;2023-11-19T03:45:33;9.60;98.80
46309;DHT22;32037;50.820;6.494;2023-11-19T03:48:03;9.60;98.80
46309;DHT22;32037;50.820;6.494;2023-11-19T03:50:33;9.60;98.80
46309;DHT22;32037;50.820;6.494;2023-11-19T03:53:01;9.60;98.90
46309;DHT22;32037;50.820;6.494;2023-11-19T03:55:30;9.60;98.80
46309;DHT22;32037;50.820;6.494;2023-11-19T03:57:59;9.60;98.90
46309;DHT22;32037;50.820;6.494;2023-11-19T04:00:30;9.60;99.50
46309;DHT22;32037;50.820;6.494;2023-11-19T04:03:03;9.60;98.90
46309;DHT22;32037;50.820;6.494;2023-11-19T04:05:32;9.60;99.00
46309;DHT22;32037;50.820;6.494;2023-11-19T04:08:01;9.60;98.90
46309;DHT22;32037;50.820;6.494;2023-11-19T04:10:29;9.70;98.70
46309;DHT22;32037;50.820;6.494;2023-11-19T04:12:57;9.60;98.80
46309;DHT22;32037;50.820;6.494;2023-11-19T04:15:25;9.70;98.90
46309;DHT22;32037;50.820;6.494;2023-11-19T04:17:55;9.70;98.80
46309;DHT22;32037;50.820;6.494;2023-11-19T04:20:23;9.70;99.20
46309;DHT22;32037;50.820;6.494;2023-11-19T04:22:56;9.70;98.80
46309;DHT22;32037;50.820;6.494;2023-11-19T04:25:24;9.60;98.80
46309;DHT22;32037;50.820;6.494;2023-11-19T04:27:53;9.70;98.80
46309;DHT22;32037;50.820;6.494;2023-11-19T04:30:23;9.70;98.80
46309;DHT22;32037;50.820;6.494;2023-11-19T04:32:51;9.60;98.70
46309;DHT22;32037;50.820;6.494;2023-11-19T04:35:19;9.70;98.80
46309;DHT22;32037;50.820;6.494;2023-11-19T04:37:48;9.70;98.80
46309;DHT22;32037;50.820;6.494;2023-11-19T04:40:17;9.70;99.00
46309;DHT22;32037;50.820;6.494;2023-11-19T04:42:46;9.70;98.90
46309;DHT22;32037;50.820;6.494;2023-11-19T04:45:14;9.70;98.90
46309;DHT22;32037;50.820;6.494;2023-11-19T04:47:43;9.70;98.90
46309;DHT22;32037;50.820;6.494;2023-11-19T04:50:11;9.70;98.90
46309;DHT22;32037;50.820;6.494;2023-11-19T04:52:39;9.70;98.90
46309;DHT22;32037;50.820;6.494;2023-11-19T04:55:09;9.70;99.00
46309;DHT22;32037;50.820;6.494;2023-11-19T04:57:40;9.70;98.90
46309;DHT22;32037;50.820;6.494;2023-11-19T05:00:11;9.70;98.90
46309;DHT22;32037;50.820;6.494;2023-11-19T05:02:42;9.70;98.90
46309;DHT22;32037;50.820;6.494;2023-11-19T05:05:10;9.70;98.80
46309;DHT22;32037;50.820;6.494;2023-11-19T05:07:39;9.70;98.90
46309;DHT22;32037;50.820;6.494;2023-11-19T05:10:07;9.70;99.00
46309;DHT22;32037;50.820;6.494;2023-11-19T05:12:36;9.70;99.10
46309;DHT22;32037;50.820;6.494;2023-11-19T05:15:07;9.70;99.00
46309;DHT22;32037;50.820;6.494;2023-11-19T05:17:36;9.70;98.90
46309;DHT22;32037;50.820;6.494;2023-11-19T05:20:05;9.70;98.90
46309;DHT22;32037;50.820;6.494;2023-11-19T05:22:40;9.70;98.90
46309;DHT22;32037;50.820;6.494;2023-11-19T05:25:08;9.70;98.80
46309;DHT22;32037;50.820;6.494;2023-11-19T05:27:37;9.70;98.70
46309;DHT22;32037;50.820;6.494;2023-11-19T05:30:07;9.70;98.70
46309;DHT22;32037;50.820;6.494;2023-11-19T05:32:37;9.70;98.80
46309;DHT22;32037;50.820;6.494;2023-11-19T05:35:09;9.70;98.90
46309;DHT22;32037;50.820;6.494;2023-11-19T05:37:37;9.70;98.80
46309;DHT22;32037;50.820;6.494;2023-11-19T05:40:07;9.70;98.70
46309;DHT22;32037;50.820;6.494;2023-11-19T05:42:41;9.70;98.70
46309;DHT22;32037;50.820;6.494;2023-11-19T05:45:14;9.70;98.80
46309;DHT22;32037;50.820;6.494;2023-11-19T05:47:42;9.70;98.80
46309;DHT22;32037;50.820;6.494;2023-11-19T05:50:10;9.80;98.90
46309;DHT22;32037;50.820;6.494;2023-11-19T05:52:38;9.70;98.70
46309;DHT22;32037;50.820;6.494;2023-11-19T05:55:07;9.70;98.60
46309;DHT22;32037;50.820;6.494;2023-11-19T05:57:38;9.80;98.60
46309;DHT22;32037;50.820;6.494;2023-11-19T06:00:10;9.70;98.60
46309;DHT22;32037;50.820;6.494;2023-11-19T06:02:41;9.80;98.60
46309;DHT22;32037;50.820;6.494;2023-11-19T06:05:09;9.80;98.60
46309;DHT22;32037;50.820;6.494;2023-11-19T06:07:37;9.70;98.60
46309;DHT22;32037;50.820;6.494;2023-11-19T06:10:06;9.80;98.70
46309;DHT22;32037;50.820;6.494;2023-11-19T06:12:37;9.70;98.60
46309;DHT22;32037;50.820;6.494;2023-11-19T06:15:08;9.80;98.60
46309;DHT22;32037;50.820;6.494;2023-11-19T06:17:36;9.80;98.60
46309;DHT22;32037;50.820;6.494;2023-11-19T06:20:07;9.80;98.60
46309;DHT22;32037;50.820;6.494;2023-11-19T06:22:38;9.80;98.70
46309;DHT22;32037;50.820;6.494;2023-11-19T06:25:07;9.80;98.60
46309;DHT22;32037;50.820;6.494;2023-11-19T06:27:35;9.80;98.60
46309;DHT22;32037;50.820;6.494;2023-11-19T06:30:04;9.70;98.60
46309;DHT22;32037;50.820;6.494;2023-11-19T06:32:32;9.70;98.60
46309;DHT22;32037;50.820;6.494;2023-11-19T06:35:00;9.70;98.60
46309;DHT22;32037;50.820;6.494;2023-11-19T06:37:33;9.80;98.60
46309;DHT22;32037;50.820;6.494;2023-11-19T06:40:02;9.80;98.60
46309;DHT22;32037;50.820;6.494;2023-11-19T06:42:31;9.80;98.60
46309;DHT22;32037;50.820;6.494;2023-11-19T06:44:59;9.80;98.60
46309;DHT22;32037;50.820;6.494;2023-11-19T06:47:28;9.80;98.60
46309;DHT22;32037;50.820;6.494;2023-11-19T06:49:56;9.80;98.60
46309;DHT22;32037;50.820;6.494;2023-11-19T06:52:24;9.80;98.60
46309;DHT22;32037;50.820;6.494;2023-11-19T06:54:53;9.80;98.60
46309;DHT22;32037;50.820;6.494;2023-11-19T06:57:34;9.80;98.60
46309;DHT22;32037;50.820;6.494;2023-11-19T07:00:06;9.80;98.60
46309;DHT22;32037;50.820;6.494;2023-11-19T07:02:35;9.80;98.60
46309;DHT22;32037;50.820;6.494;2023-11-19T07:05:07;9.80;98.60
46309;DHT22;32037;50.820;6.494;2023-11-19T07:07:36;9.80;98.60
46309;DHT22;32037;50.820;6.494;2023-11-19T07:10:08;9.80;98.60
46309;DHT22;32037;50.820;6.494;2023-11-19T07:12:36;9.80;98.60
46309;DHT22;32037;50.820;6.494;2023-11-19T07:15:06;9.80;98.60
46309;DHT22;32037;50.820;6.494;2023-11-19T07:17:35;9.80;99.10
46309;DHT22;32037;50.820;6.494;2023-11-19T07:20:04;9.80;98.60
46309;DHT22;32037;50.820;6.494;2023-11-19T07:22:33;9.80;98.60
46309;DHT22;32037;50.820;6.494;2023-11-19T07:25:04;9.80;98.60
46309;DHT22;32037;50.820;6.494;2023-11-19T07:27:36;9.80;98.60
46309;DHT22;32037;50.820;6.494;2023-11-19T07:30:06;9.80;98.60
46309;DHT22;32037;50.820;6.494;2023-11-19T07:32:34;9.80;98.60
46309;DHT22;32037;50.820;6.494;2023-11-19T07:35:03;9.80;98.60
46309;DHT22;32037;50.820;6.494;2023-11-19T07:37:31;9.80;98.60
46309;DHT22;32037;50.820;6.494;2023-11-19T07:39:59;9.80;98.60
46309;DHT22;32037;50.820;6.494;2023-11-19T07:42:27;9.80;98.60
46309;DHT22;32037;50.820;6.494;2023-11-19T07:44:57;9.80;98.60
46309;DHT22;32037;50.820;6.494;2023-11-19T07:47:25;9.80;98.60
46309;DHT22;32037;50.820;6.494;2023-11-19T07:49:53;9.80;98.60
46309;DHT22;32037;50.820;6.494;2023-11-19T07:52:23;9.80;98.60
46309;DHT22;32037;50.820;6.494;2023-11-19T07:54:51;9.90;98.70
46309;DHT22;32037;50.820;6.494;2023-11-19T07:57:19;9.80;98.60
46309;DHT22;32037;50.820;6.494;2023-11-19T07:59:47;9.80;98.60
46309;DHT22;32037;50.820;6.494;2023-11-19T08:02:17;9.90;98.70
46309;DHT22;32037;50.820;6.494;2023-11-19T08:04:46;9.90;98.70
46309;DHT22;32037;50.820;6.494;2023-11-19T08:07:17;9.90;98.70
46309;DHT22;32037;50.820;6.494;2023-11-19T08:09:45;9.90;98.70
46309;DHT22;32037;50.820;6.494;2023-11-19T08:12:13;9.90;98.70
46309;DHT22;32037;50.820;6.494;2023-11-19T08:14:43;9.90;98.70
46309;DHT22;32037;50.820;6.494;2023-11-19T08:17:11;9.90;98.70
46309;DHT22;32037;50.820;6.494;2023-11-19T08:19:41;9.90;98.70
46309;DHT22;32037;50.820;6.494;2023-11-19T08:22:09;9.90;98.70
46309;DHT22;32037;50.820;6.494;2023-11-19T08:24:37;9.90;98.60
46309;DHT22;32037;50.820;6.494;2023-11-19T08:27:05;9.90;98.50
46309;DHT22;32037;50.820;6.494;2023-11-19T08:29:33;9.90;98.50
46309;DHT22;32037;50.820;6.494;2023-11-19T08:32:01;9.90;98.40
46309;DHT22;32037;50.820;6.494;2023-11-19T08:34:30;9.90;98.10
46309;DHT22;32037;50.820;6.494;2023-11-19T08:37:00;9.90;98.30
46309;DHT22;32037;50.820;6.494;2023-11-19T08:39:28;10.00;97.50
46309;DHT22;32037;50.820;6.494;2023-11-19T08:41:57;10.00;97.60
46309;DHT22;32037;50.820;6.494;2023-11-19T08:44:25;10.00;97.50
46309;DHT22;32037;50.820;6.494;2023-11-19T08:46:54;10.00;97.50
46309;DHT22;32037;50.820;6.494;2023-11-19T08:49:22;10.00;97.30
46309;DHT22;32037;50.820;6.494;2023-11-19T08:51:50;10.00;97.50
46309;DHT22;32037;50.820;6.494;2023-11-19T08:54:20;10.10;97.60
46309;DHT22;32037;50.820;6.494;2023-11-19T08:56:49;10.10;97.50
46309;DHT22;32037;50.820;6.494;2023-11-19T08:59:17;10.10;97.40
46309;DHT22;32037;50.820;6.494;2023-11-19T09:01:45;10.10;97.30
46309;DHT22;32037;50.820;6.494;2023-11-19T09:04:14;10.10;97.30
46309;DHT22;32037;50.820;6.494;2023-11-19T09:06:43;10.10;97.30
46309;DHT22;32037;50.820;6.494;2023-11-19T09:09:13;10.10;97.30
46309;DHT22;32037;50.820;6.494;2023-11-19T09:11:43;10.10;97.20
46309;DHT22;32037;50.820;6.494;2023-11-19T09:14:11;10.20;97.60
46309;DHT22;32037;50.820;6.494;2023-11-19T09:16:39;10.20;97.30
46309;DHT22;32037;50.820;6.494;2023-11-19T09:19:07;10.20;97.30
46309;DHT22;32037;50.820;6.494;2023-11-19T09:21:35;10.20;97.20
46309;DHT22;32037;50.820;6.494;2023-11-19T09:24:05;10.30;97.30
46309;DHT22;32037;50.820;6.494;2023-11-19T09:26:34;10.30;97.20
46309;DHT22;32037;50.820;6.494;2023-11-19T09:29:09;10.20;97.10
46309;DHT22;32037;50.820;6.494;2023-11-19T09:31:38;10.20;97.20
46309;DHT22;32037;50.820;6.494;2023-11-19T09:34:06;10.20;97.20
46309;DHT22;32037;50.820;6.494;2023-11-19T09:36:35;10.20;97.20
46309;DHT22;32037;50.820;6.494;2023-11-19T09:39:03;10.20;97.10
46309;DHT22;32037;50.820;6.494;2023-11-19T09:41:32;10.20;97.10
46309;DHT22;32037;50.820;6.494;2023-11-19T09:44:01;10.20;97.10
46309;DHT22;32037;50.820;6.494;2023-11-19T09:46:32;10.30;97.20
46309;DHT22;32037;50.820;6.494;2023-11-19T09:49:04;10.20;97.30
46309;DHT22;32037;50.820;6.494;2023-11-19T09:51:36;10.20;97.00
46309;DHT22;32037;50.820;6.494;2023-11-19T09:54:04;10.30;97.20
46309;DHT22;32037;50.820;6.494;2023-11-19T09:56:33;10.20;97.10
46309;DHT22;32037;50.820;6.494;2023-11-19T09:59:03;10.20;97.20
46309;DHT22;32037;50.820;6.494;2023-11-19T10:01:34;10.30;97.00
46309;DHT22;32037;50.820;6.494;2023-11-19T10:04:07;10.30;96.90
46309;DHT22;32037;50.820;6.494;2023-11-19T10:06:35;10.20;97.20
46309;DHT22;32037;50.820;6.494;2023-11-19T10:09:03;10.30;97.20
46309;DHT22;32037;50.820;6.494;2023-11-19T10:11:32;10.30;96.90
46309;DHT22;32037;50.820;6.494;2023-11-19T10:14:00;10.30;96.90
46309;DHT22;32037;50.820;6.494;2023-11-19T10:16:29;10.20;97.10
46309;DHT22;32037;50.820;6.494;2023-11-19T10:18:59;10.30;97.40
46309;DHT22;32037;50.820;6.494;2023-11-19T10:21:28;10.40;98.70
46309;DHT22;32037;50.820;6.494;2023-11-19T10:23:58;10.40;98.40
46309;DHT22;32037;50.820;6.494;2023-11-19T10:26:28;10.40;98.00
46309;DHT22;32037;50.820;6.494;2023-11-19T10:28:56;10.40;98.00
46309;DHT22;32037;50.820;6.494;2023-11-19T10:31:24;10.30;98.00
46309;DHT22;32037;50.820;6.494;2023-11-19T10:33:53;10.40;98.00
46309;DHT22;32037;50.820;6.494;2023-11-19T10:36:37;10.40;98.40
46309;DHT22;32037;50.820;6.494;2023-11-19T10:39:06;10.30;97.50
46309;DHT22;32037;50.820;6.494;2023-11-19T10:41:35;10.40;97.90
46309;DHT22;32037;50.820;6.494;2023-11-19T10:44:07;10.40;97.70
46309;DHT22;32037;50.820;6.494;2023-11-19T10:46:38;10.40;97.60
46309;DHT22;32037;50.820;6.494;2023-11-19T10:49:08;10.40;97.80
46309;DHT22;32037;50.820;6.494;2023-11-19T10:51:41;10.40;97.60
46309;DHT22;32037;50.820;6.494;2023-11-19T10:54:12;10.40;97.70
46309;DHT22;32037;50.820;6.494;2023-11-19T10:56:44;10.30;97.40
46309;DHT22;32037;50.820;6.494;2023-11-19T10:59:15;10.30;97.50
46309;DHT22;32037;50.820;6.494;2023-11-19T11:01:51;10.30;97.40
46309;DHT22;32037;50.820;6.494;2023-11-19T11:04:23;10.30;97.40
46309;DHT22;32037;50.820;6.494;2023-11-19T11:06:54;10.30;97.60
46309;DHT22;32037;50.820;6.494;2023-11-19T11:09:26;10.40;97.50
46309;DHT22;32037;50.820;6.494;2023-11-19T11:11:58;10.30;97.50
46309;DHT22;32037;50.820;6.494;2023-11-19T11:14:27;10.30;97.40
46309;DHT22;32037;50.820;6.494;2023-11-19T11:16:56;10.30;97.50
46309;DHT22;32037;50.820;6.494;2023-11-19T11:19:26;10.30;97.40
46309;DHT22;32037;50.820;6.494;2023-11-19T11:21:56;10.30;97.50
46309;DHT22;32037;50.820;6.494;2023-11-19T11:24:45;10.30;97.60
46309;DHT22;32037;50.820;6.494;2023-11-19T11:27:35;10.30;97.50
46309;DHT22;32037;50.820;6.494;2023-11-19T11:30:20;10.40;97.60
46309;DHT22;32037;50.820;6.494;2023-11-19T11:32:57;10.40;97.70
46309;DHT22;32037;50.820;6.494;2023-11-19T11:35:32;10.40;97.50
46309;DHT22;32037;50.820;6.494;2023-11-19T11:38:07;10.40;97.60
46309;DHT22;32037;50.820;6.494;2023-11-19T11:40:35;10.40;97.60
46309;DHT22;32037;50.820;6.494;2023-11-19T11:43:45;10.30;97.60
46309;DHT22;32037;50.820;6.494;2023-11-19T11:46:53;10.40;97.90
46309;DHT22;32037;50.820;6.494;2023-11-19T11:49:28;10.40;97.80
46309;DHT22;32037;50.820;6.494;2023-11-19T11:51:59;10.40;97.80
46309;DHT22;32037;50.820;6.494;2023-11-19T11:54:29;10.40;97.80
46309;DHT22;32037;50.820;6.494;2023-11-19T11:57:03;10.40;98.40
46309;DHT22;32037;50.820;6.494;2023-11-19T11:59:43;10.40;97.90
46309;DHT22;32037;50.820;6.494;2023-11-19T12:02:15;10.40;97.80
46309;DHT22;32037;50.820;6.494;2023-11-19T12:04:47;10.40;97.90
46309;DHT22;32037;50.820;6.494;2023-11-19T12:07:17;10.40;97.70
46309;DHT22;32037;50.820;6.494;2023-11-19T12:09:53;10.40;98.00
46309;DHT22;32037;50.820;6.494;2023-11-19T12:12:27;10.40;97.80
46309;DHT22;32037;50.820;6.494;2023-11-19T12:15:04;10.40;97.90
46309;DHT22;32037;50.820;6.494;2023-11-19T12:17:46;10.40;97.90
46309;DHT22;32037;50.820;6.494;2023-11-19T12:20:17;10.40;97.90
46309;DHT22;32037;50.820;6.494;2023-11-19T12:23:04;10.40;98.10
46309;DHT22;32037;50.820;6.494;2023-11-19T12:25:38;10.40;98.10
46309;DHT22;32037;50.820;6.494;2023-11-19T12:28:06;10.40;98.20
46309;DHT22;32037;50.820;6.494;2023-11-19T12:30:40;10.40;97.80
46309;DHT22;32037;50.820;6.494;2023-11-19T12:33:09;10.40;98.00
46309;DHT22;32037;50.820;6.494;2023-11-19T12:35:39;10.40;98.00
46309;DHT22;32037;50.820;6.494;2023-11-19T12:38:07;10.40;98.10
46309;DHT22;32037;50.820;6.494;2023-11-19T12:40:37;10.50;98.00
46309;DHT22;32037;50.820;6.494;2023-11-19T12:43:05;10.50;97.90
46309;DHT22;32037;50.820;6.494;2023-11-19T12:45:36;10.40;98.40
46309;DHT22;32037;50.820;6.494;2023-11-19T12:48:06;10.50;98.10
46309;DHT22;32037;50.820;6.494;2023-11-19T12:50:55;10.50;98.00
46309;DHT22;32037;50.820;6.494;2023-11-19T12:53:25;10.50;98.10
46309;DHT22;32037;50.820;6.494;2023-11-19T12:55:55;10.50;98.00
46309;DHT22;32037;50.820;6.494;2023-11-19T12:58:31;10.50;98.00
46309;DHT22;32037;50.820;6.494;2023-11-19T13:01:00;10.50;98.10
46309;DHT22;32037;50.820;6.494;2023-11-19T13:03:32;10.50;98.00
46309;DHT22;32037;50.820;6.494;2023-11-19T13:06:04;10.50;98.00
46309;DHT22;32037;50.820;6.494;2023-11-19T13:08:39;10.50;98.20
46309;DHT22;32037;50.820;6.494;2023-11-19T13:11:09;10.50;98.00
46309;DHT22;32037;50.820;6.494;2023-11-19T13:13:56;10.50;98.10
46309;DHT22;32037;50.820;6.494;2023-11-19T13:16:25;10.50;98.00
46309;DHT22;32037;50.820;6.494;2023-11-19T13:18:54;10.50;98.00
46309;DHT22;32037;50.820;6.494;2023-11-19T13:21:24;10.50;98.00
46309;DHT22;32037;50.820;6.494;2023-11-19T13:23:52;10.50;98.10
46309;DHT22;32037;50.820;6.494;2023-11-19T13:26:24;10.60;98.60
46309;DHT22;32037;50.820;6.494;2023-11-19T13:28:52;10.50;98.00
46309;DHT22;32037;50.820;6.494;2023-11-19T13:31:20;10.50;98.10
46309;DHT22;32037;50.820;6.494;2023-11-19T13:33:49;10.50;98.00
46309;DHT22;32037;50.820;6.494;2023-11-19T13:36:17;10.50;97.90
46309;DHT22;32037;50.820;6.494;2023-11-19T13:38:46;10.50;97.80
46309;DHT22;32037;50.820;6.494;2023-11-19T13:41:14;10.50;97.90
46309;DHT22;32037;50.820;6.494;2023-11-19T13:43:44;10.50;98.00
46309;DHT22;32037;50.820;6.494;2023-11-19T13:46:12;10.50;97.90
46309;DHT22;32037;50.820;6.494;2023-11-19T13:48:40;10.50;97.80
46309;DHT22;32037;50.820;6.494;2023-11-19T13:51:08;10.50;97.80
46309;DHT22;32037;50.820;6.494;2023-11-19T13:53:37;10.50;97.90
46309;DHT22;32037;50.820;6.494;2023-11-19T13:56:09;10.60;97.80
46309;DHT22;32037;50.820;6.494;2023-11-19T13:58:38;10.50;97.90
46309;DHT22;32037;50.820;6.494;2023-11-19T14:01:08;10.50;97.80
46309;DHT22;32037;50.820;6.494;2023-11-19T14:03:36;10.50;97.90
46309;DHT22;32037;50.820;6.494;2023-11-19T14:06:05;10.50;97.90
46309;DHT22;32037;50.820;6.494;2023-11-19T14:08:35;10.60;98.00
46309;DHT22;32037;50.820;6.494;2023-11-19T14:11:05;10.60;97.90
46309;DHT22;32037;50.820;6.494;2023-11-19T14:13:33;10.50;97.80
46309;DHT22;32037;50.820;6.494;2023-11-19T14:16:02;10.60;97.70
46309;DHT22;32037;50.820;6.494;2023-11-19T14:18:34;10.60;97.90
46309;DHT22;32037;50.820;6.494;2023-11-19T14:21:03;10.60;97.90
46309;DHT22;32037;50.820;6.494;2023-11-19T14:23:33;10.60;97.80
46309;DHT22;32037;50.820;6.494;2023-11-19T14:26:04;10.60;97.80
46309;DHT22;32037;50.820;6.494;2023-11-19T14:28:32;10.60;97.80
46309;DHT22;32037;50.820;6.494;2023-11-19T14:31:01;10.60;97.80
46309;DHT22;32037;50.820;6.494;2023-11-19T14:33:33;10.60;97.80
46309;DHT22;32037;50.820;6.494;2023-11-19T14:36:03;10.60;97.80
46309;DHT22;32037;50.820;6.494;2023-11-19T14:38:33;10.60;97.80
46309;DHT22;32037;50.820;6.494;2023-11-19T14:41:01;10.60;97.90
46309;DHT22;32037;50.820;6.494;2023-11-19T14:43:28;10.60;97.70
46309;DHT22;32037;50.820;6.494;2023-11-19T14:45:56;10.60;97.80
46309;DHT22;32037;50.820;6.494;2023-11-19T14:48:24;10.60;97.80
46309;DHT22;32037;50.820;6.494;2023-11-19T14:50:54;10.60;97.80
46309;DHT22;32037;50.820;6.494;2023-11-19T14:53:22;10.60;97.90
46309;DHT22;32037;50.820;6.494;2023-11-19T14:55:50;10.60;97.80
46309;DHT22;32037;50.820;6.494;2023-11-19T14:58:18;10.60;97.70
46309;DHT22;32037;50.820;6.494;2023-11-19T15:00:48;10.60;97.80
46309;DHT22;32037;50.820;6.494;2023-11-19T15:03:19;10.60;97.70
46309;DHT22;32037;50.820;6.494;2023-11-19T15:05:49;10.60;97.80
46309;DHT22;32037;50.820;6.494;2023-11-19T15:08:20;10.60;97.80
46309;DHT22;32037;50.820;6.494;2023-11-19T15:10:50;10.60;97.80
46309;DHT22;32037;50.820;6.494;2023-11-19T15:13:19;10.60;97.80
46309;DHT22;32037;50.820;6.494;2023-11-19T15:15:47;10.60;97.80
46309;DHT22;32037;50.820;6.494;2023-11-19T15:18:15;10.60;97.70
46309;DHT22;32037;50.820;6.494;2023-11-19T15:20:44;10.60;98.00
46309;DHT22;32037;50.820;6.494;2023-11-19T15:23:14;10.60;97.70
46309;DHT22;32037;50.820;6.494;2023-11-19T15:25:43;10.60;97.70
46309;DHT22;32037;50.820;6.494;2023-11-19T15:28:11;10.60;97.70
46309;DHT22;32037;50.820;6.494;2023-11-19T15:30:39;10.60;97.90
46309;DHT22;32037;50.820;6.494;2023-11-19T15:33:08;10.60;98.00
46309;DHT22;32037;50.820;6.494;2023-11-19T15:35:36;10.60;97.80
46309;DHT22;32037;50.820;6.494;2023-11-19T15:38:06;10.60;98.00
46309;DHT22;32037;50.820;6.494;2023-11-19T15:40:36;10.60;97.80
46309;DHT22;32037;50.820;6.494;2023-11-19T15:43:06;10.60;97.70
46309;DHT22;32037;50.820;6.494;2023-11-19T15:45:34;10.60;97.70
46309;DHT22;32037;50.820;6.494;2023-11-19T15:48:05;10.60;97.80
46309;DHT22;32037;50.820;6.494;2023-11-19T15:50:33;10.60;97.70
46309;DHT22;32037;50.820;6.494;2023-11-19T15:53:01;10.60;97.70
46309;DHT22;32037;50.820;6.494;2023-11-19T15:55:29;10.60;97.80
46309;DHT22;32037;50.820;6.494;2023-11-19T15:57:57;10.60;97.90